createdAt,value
2023-04-07T00:01:48.890Z,8.70
2023-04-07T00:04:16.434Z,10.30
2023-04-07T00:06:43.886Z,9.35
2023-04-07T00:09:11.387Z,9.15
2023-04-07T00:11:38.685Z,9.30
2023-04-07T00:14:06.061Z,9.27
2023-04-07T00:16:33.429Z,8.10
2023-04-07T00:19:00.808Z,9.30
2023-04-07T00:21:28.071Z,9.90
2023-04-07T00:23:55.745Z,9.40
2023-04-07T00:26:23.269Z,9.27
2023-04-07T00:28:50.526Z,9.60
2023-04-07T00:31:17.843Z,9.13
2023-04-07T00:33:45.123Z,8.38
2023-04-07T00:36:12.377Z,9.45
2023-04-07T00:38:40.431Z,9.02
2023-04-07T00:41:07.702Z,8.73
2023-04-07T00:43:35.146Z,9.00
2023-04-07T00:46:02.556Z,9.80
2023-04-07T00:48:30.951Z,9.60
2023-04-07T00:50:58.345Z,9.00
2023-04-07T00:53:25.850Z,8.82
2023-04-07T00:55:53.314Z,8.82
2023-04-07T00:58:20.635Z,9.80
2023-04-07T01:00:50.981Z,9.93
2023-04-07T01:03:25.751Z,10.00
2023-04-07T01:06:01.101Z,8.38
2023-04-07T01:09:04.289Z,9.13
2023-04-07T01:11:48.376Z,10.52
2023-04-07T01:14:19.572Z,8.20
2023-04-07T01:16:55.143Z,9.50
2023-04-07T01:19:44.667Z,11.73
2023-04-07T01:22:28.759Z,9.03
2023-04-07T01:25:14.500Z,8.32
2023-04-07T01:27:44.865Z,8.63
2023-04-07T01:32:41.437Z,10.15
2023-04-07T01:35:12.024Z,9.80
2023-04-07T01:37:40.979Z,8.68
2023-04-07T01:40:09.135Z,9.13
2023-04-07T01:42:36.869Z,9.60
2023-04-07T01:45:06.046Z,8.65
2023-04-07T01:47:33.833Z,9.98
2023-04-07T01:50:12.982Z,9.75
2023-04-07T01:52:40.690Z,9.98
2023-04-07T01:55:07.984Z,11.05
2023-04-07T01:57:39.458Z,11.20
2023-04-07T02:00:14.309Z,10.63
2023-04-07T02:02:52.102Z,10.13
2023-04-07T02:05:21.299Z,10.02
2023-04-07T02:07:51.329Z,10.35
2023-04-07T02:10:23.780Z,10.18
2023-04-07T02:12:53.726Z,9.23
2023-04-07T02:15:22.654Z,10.50
2023-04-07T02:17:53.102Z,9.85
2023-04-07T02:20:21.926Z,10.15
2023-04-07T02:22:49.212Z,10.43
2023-04-07T02:25:29.765Z,10.80
2023-04-07T02:27:58.130Z,10.30
2023-04-07T02:30:25.926Z,9.18
2023-04-07T02:32:53.708Z,9.30
2023-04-07T02:35:21.301Z,10.05
2023-04-07T02:37:55.893Z,9.90
2023-04-07T02:40:23.367Z,11.80
2023-04-07T02:42:53.966Z,8.90
2023-04-07T02:45:23.355Z,9.27
2023-04-07T02:47:50.825Z,9.45
2023-04-07T02:50:18.618Z,10.27
2023-04-07T02:52:46.118Z,10.25
2023-04-07T02:55:15.556Z,9.70
2023-04-07T02:57:42.935Z,9.00
2023-04-07T03:00:20.425Z,9.60
2023-04-07T03:03:09.216Z,9.32
2023-04-07T03:05:39.515Z,10.75
2023-04-07T03:08:08.389Z,9.63
2023-04-07T03:10:36.385Z,9.23
2023-04-07T03:13:04.205Z,10.32
2023-04-07T03:15:34.893Z,9.77
2023-04-07T03:18:02.306Z,10.07
2023-04-07T03:20:30.584Z,10.68
2023-04-07T03:23:02.952Z,9.45
2023-04-07T03:25:31.363Z,9.75
2023-04-07T03:27:59.420Z,10.88
2023-04-07T03:30:30.841Z,10.60
2023-04-07T03:32:58.268Z,9.93
2023-04-07T03:35:25.923Z,10.18
2023-04-07T03:37:53.180Z,10.18
2023-04-07T03:40:20.681Z,10.20
2023-04-07T03:42:48.936Z,9.30
2023-04-07T03:45:17.693Z,8.90
2023-04-07T03:47:50.428Z,10.20
2023-04-07T03:50:18.668Z,10.25
2023-04-07T03:52:57.100Z,10.07
2023-04-07T03:55:27.002Z,10.15
2023-04-07T03:57:59.002Z,10.45
2023-04-07T04:00:31.876Z,10.27
2023-04-07T04:03:07.155Z,9.80
2023-04-07T04:05:37.074Z,10.13
2023-04-07T04:08:04.838Z,10.85
2023-04-07T04:10:34.418Z,11.02
2023-04-07T04:13:03.993Z,10.48
2023-04-07T04:15:31.510Z,10.57
2023-04-07T04:18:00.706Z,11.38
2023-04-07T04:20:27.995Z,10.40
2023-04-07T04:22:55.861Z,10.60
2023-04-07T04:25:23.228Z,9.55
2023-04-07T04:27:54.376Z,10.77
2023-04-07T04:30:24.739Z,9.90
2023-04-07T04:32:56.347Z,10.30
2023-04-07T04:35:32.670Z,10.77
2023-04-07T04:38:07.726Z,11.27
2023-04-07T04:40:35.919Z,11.23
2023-04-07T04:43:07.640Z,10.07
2023-04-07T04:45:37.223Z,9.73
2023-04-07T04:48:06.349Z,9.95
2023-04-07T04:50:33.771Z,11.40
2023-04-07T04:53:05.130Z,11.27
2023-04-07T04:55:32.408Z,10.13
2023-04-07T04:58:01.309Z,10.65
2023-04-07T05:00:43.693Z,11.60
2023-04-07T05:03:11.171Z,10.18
2023-04-07T05:05:41.954Z,9.27
2023-04-07T05:08:11.399Z,10.02
2023-04-07T05:10:40.911Z,10.20
2023-04-07T05:13:12.601Z,10.30
2023-04-07T05:15:41.903Z,10.25
2023-04-07T05:18:11.911Z,12.85
2023-04-07T05:20:39.384Z,10.70
2023-04-07T05:23:08.466Z,10.30
2023-04-07T05:25:37.019Z,10.30
2023-04-07T05:28:05.933Z,10.95
2023-04-07T05:30:33.200Z,10.43
2023-04-07T05:33:01.243Z,10.40
2023-04-07T05:35:40.797Z,10.65
2023-04-07T05:38:08.282Z,9.70
2023-04-07T05:40:37.427Z,12.30
2023-04-07T05:43:07.637Z,11.48
2023-04-07T05:45:35.605Z,11.70
2023-04-07T05:48:03.045Z,11.02
2023-04-07T05:50:39.446Z,11.40
2023-04-07T05:53:11.644Z,11.07
2023-04-07T05:55:38.894Z,10.80
2023-04-07T05:58:09.364Z,10.57
2023-04-07T06:00:36.802Z,10.18
2023-04-07T06:03:10.009Z,10.30
2023-04-07T06:05:49.415Z,10.38
2023-04-07T06:08:20.045Z,10.63
2023-04-07T06:10:51.221Z,10.60
2023-04-07T06:13:18.510Z,10.40
2023-04-07T06:15:45.798Z,9.50
2023-04-07T06:18:13.093Z,10.02
2023-04-07T06:20:40.356Z,12.27
2023-04-07T06:23:07.720Z,10.63
2023-04-07T06:25:34.961Z,11.68
2023-04-07T06:28:02.405Z,10.32
2023-04-07T06:30:29.822Z,10.57
2023-04-07T06:32:57.999Z,11.88
2023-04-07T06:35:26.887Z,11.43
2023-04-07T06:37:54.185Z,10.07
2023-04-07T06:40:21.929Z,11.57
2023-04-07T06:42:49.178Z,12.43
2023-04-07T06:45:24.252Z,11.00
2023-04-07T06:47:51.997Z,11.88
2023-04-07T06:50:22.163Z,11.90
2023-04-07T06:52:49.491Z,11.98
2023-04-07T06:55:16.838Z,11.60
2023-04-07T06:57:44.285Z,12.75
2023-04-07T07:00:12.008Z,11.68
2023-04-07T07:02:39.463Z,12.02
2023-04-07T07:05:08.460Z,12.75
2023-04-07T07:07:35.914Z,11.35
2023-04-07T07:10:03.332Z,12.18
2023-04-07T07:12:30.736Z,12.55
2023-04-07T07:14:57.940Z,12.57
2023-04-07T07:17:25.446Z,11.88
2023-04-07T07:19:53.047Z,12.23
2023-04-07T07:22:35.361Z,12.15
2023-04-07T07:25:02.715Z,11.40
2023-04-07T07:27:29.970Z,12.63
2023-04-07T07:29:57.214Z,11.45
2023-04-07T07:32:24.483Z,13.70
2023-04-07T07:34:51.754Z,12.43
2023-04-07T07:37:18.967Z,12.25
2023-04-07T07:39:46.184Z,11.68
2023-04-07T07:42:13.462Z,11.95
2023-04-07T07:44:40.860Z,12.30
2023-04-07T07:47:08.088Z,11.77
2023-04-07T07:49:35.460Z,12.90
2023-04-07T07:52:02.701Z,13.43
2023-04-07T07:54:29.944Z,13.88
2023-04-07T07:56:57.454Z,13.35
2023-04-07T07:59:24.675Z,12.63
2023-04-07T08:01:51.961Z,14.20
2023-04-07T08:04:33.453Z,13.48
2023-04-07T08:07:00.750Z,13.35
2023-04-07T08:09:28.051Z,13.02
2023-04-07T08:12:09.831Z,12.88
2023-04-07T08:14:37.125Z,13.10
2023-04-07T08:17:04.372Z,12.48
2023-04-07T08:19:31.636Z,11.57
2023-04-07T08:21:58.916Z,12.07
2023-04-07T08:24:26.166Z,11.80
2023-04-07T08:26:53.413Z,11.27
2023-04-07T08:29:20.613Z,12.85
2023-04-07T08:31:48.011Z,11.77
2023-04-07T08:34:16.472Z,11.13
2023-04-07T08:36:44.118Z,12.30
2023-04-07T08:39:11.452Z,11.68
2023-04-07T08:41:41.030Z,11.25
2023-04-07T08:44:09.511Z,11.43
2023-04-07T08:46:39.498Z,11.82
2023-04-07T08:49:11.263Z,11.60
2023-04-07T08:51:39.713Z,11.38
2023-04-07T08:54:07.349Z,11.18
2023-04-07T08:56:34.840Z,12.40
2023-04-07T08:59:02.816Z,11.65
2023-04-07T09:01:30.518Z,11.90
2023-04-07T09:03:58.819Z,11.45
2023-04-07T09:06:27.352Z,12.75
2023-04-07T09:08:55.340Z,12.60
2023-04-07T09:11:23.679Z,11.00
2023-04-07T09:13:51.520Z,11.52
2023-04-07T09:16:18.819Z,11.43
2023-04-07T09:18:46.322Z,11.93
2023-04-07T09:21:15.198Z,12.50
2023-04-07T09:23:43.473Z,10.67
2023-04-07T09:26:22.862Z,11.70
2023-04-07T09:28:50.814Z,12.60
2023-04-07T09:31:18.141Z,11.50
2023-04-07T09:33:45.526Z,11.20
2023-04-07T09:36:12.966Z,11.73
2023-04-07T09:38:41.618Z,11.63
2023-04-07T09:41:11.972Z,12.23
2023-04-07T09:43:44.880Z,9.90
2023-04-07T09:46:16.196Z,11.65
2023-04-07T09:48:45.011Z,11.02
2023-04-07T09:51:16.757Z,12.32
2023-04-07T09:53:49.058Z,10.52
2023-04-07T09:56:18.231Z,13.23
2023-04-07T09:58:47.115Z,12.20
2023-04-07T10:01:16.876Z,11.93
2023-04-07T10:03:47.362Z,13.25
2023-04-07T10:06:16.567Z,11.02
2023-04-07T10:08:44.066Z,11.55
2023-04-07T10:11:11.678Z,11.00
2023-04-07T10:13:41.332Z,11.95
2023-04-07T10:16:23.755Z,11.18
2023-04-07T10:18:51.792Z,10.20
2023-04-07T10:21:19.308Z,10.10
2023-04-07T10:23:54.133Z,11.00
2023-04-07T10:26:23.987Z,11.50
2023-04-07T10:28:55.571Z,11.27
2023-04-07T10:31:23.556Z,10.38
2023-04-07T10:33:53.359Z,11.32
2023-04-07T10:36:21.626Z,10.85
2023-04-07T10:39:07.367Z,11.15
2023-04-07T10:41:38.543Z,10.52
2023-04-07T10:44:06.811Z,10.25
2023-04-07T10:47:03.162Z,10.93
2023-04-07T10:49:30.471Z,10.98
2023-04-07T10:52:13.088Z,10.73
2023-04-07T10:54:40.582Z,11.02
2023-04-07T10:57:12.242Z,11.15
2023-04-07T10:59:41.024Z,11.80
2023-04-07T11:02:14.570Z,12.57
2023-04-07T11:04:46.186Z,12.07
2023-04-07T11:07:21.466Z,10.48
2023-04-07T11:09:48.744Z,10.00
2023-04-07T11:12:26.446Z,11.55
2023-04-07T11:14:54.226Z,11.15
2023-04-07T11:17:21.506Z,10.27
2023-04-07T11:19:52.692Z,11.90
2023-04-07T11:24:50.765Z,11.13
2023-04-07T11:27:18.351Z,11.32
2023-04-07T11:29:45.816Z,8.52
2023-04-07T11:32:13.336Z,10.55
2023-04-07T11:34:40.921Z,12.07
2023-04-07T11:37:27.220Z,11.10
2023-04-07T11:39:58.729Z,10.80
2023-04-07T11:42:35.823Z,10.50
2023-04-07T11:45:03.327Z,11.70
2023-04-07T11:47:38.419Z,10.05
2023-04-07T11:50:06.282Z,11.07
2023-04-07T11:52:49.080Z,12.15
2023-04-07T11:55:21.953Z,11.30
2023-04-07T11:57:51.722Z,8.75
2023-04-07T12:00:19.819Z,10.68
2023-04-07T12:05:14.427Z,10.35
2023-04-07T12:07:53.903Z,10.55
2023-04-07T12:10:21.607Z,9.82
2023-04-07T12:12:49.327Z,9.38
2023-04-07T12:15:16.785Z,9.55
2023-04-07T12:17:47.899Z,9.05
2023-04-07T12:20:15.979Z,8.68
2023-04-07T12:22:43.232Z,9.68
2023-04-07T12:44:56.925Z,9.10
2023-04-07T12:50:05.660Z,9.32
2023-04-07T12:55:00.245Z,9.65
2023-04-07T12:57:27.611Z,10.68
2023-04-07T12:59:54.878Z,9.85
2023-04-07T13:02:22.144Z,9.15
2023-04-07T13:04:49.496Z,10.10
2023-04-07T13:07:17.075Z,9.68
2023-04-07T13:09:44.362Z,9.52
2023-04-07T13:12:12.115Z,10.60
2023-04-07T13:14:49.392Z,9.93
2023-04-07T13:17:24.729Z,9.88
2023-04-07T13:19:52.612Z,10.13
2023-04-07T13:22:22.268Z,9.48
